Terminal Aerodrome Forecast
Issued by NWS

Current Version | Previous Version | Text Only | Print | Product List | Glossary On
Versions: 1 2 3 4 5 6 7 8 9 10 11 12
000
FTUS43 KDTX 181100
TAFMBS
TAF
KMBS 181120Z 1812/1912 27005KT P6SM BKN080
     FM181500 30008KT P6SM SCT050
     FM190100 VRB04KT P6SM SKC=

USA.gov is the U.S. government's official web portal to all federal, state and local government web resources and services.